sensor_id;sensor_type;location;lat;lon;timestamp;temperature;humidity
25482;DHT22;13395;50.752;4.268;2022-12-19T00:01:39;5.30;99.90
25482;DHT22;13395;50.752;4.268;2022-12-19T00:04:06;5.30;99.90
25482;DHT22;13395;50.752;4.268;2022-12-19T00:06:32;5.40;99.90
25482;DHT22;13395;50.752;4.268;2022-12-19T00:08:58;5.50;99.90
25482;DHT22;13395;50.752;4.268;2022-12-19T00:11:25;5.50;99.90
25482;DHT22;13395;50.752;4.268;2022-12-19T00:13:51;5.60;99.90
25482;DHT22;13395;50.752;4.268;2022-12-19T00:16:20;5.60;99.90
25482;DHT22;13395;50.752;4.268;2022-12-19T00:18:48;5.50;99.90
25482;DHT22;13395;50.752;4.268;2022-12-19T00:21:16;5.60;99.90
25482;DHT22;13395;50.752;4.268;2022-12-19T00:23:43;5.70;99.90
25482;DHT22;13395;50.752;4.268;2022-12-19T00:26:17;5.60;99.90
25482;DHT22;13395;50.752;4.268;2022-12-19T00:28:45;5.70;99.90
25482;DHT22;13395;50.752;4.268;2022-12-19T00:31:12;5.70;99.90
25482;DHT22;13395;50.752;4.268;2022-12-19T00:33:37;5.80;99.90
25482;DHT22;13395;50.752;4.268;2022-12-19T00:36:06;5.90;99.90
25482;DHT22;13395;50.752;4.268;2022-12-19T00:38:32;5.90;99.90
25482;DHT22;13395;50.752;4.268;2022-12-19T00:41:06;5.90;99.90
25482;DHT22;13395;50.752;4.268;2022-12-19T00:43:32;6.00;99.90
25482;DHT22;13395;50.752;4.268;2022-12-19T00:45:57;6.00;99.90
25482;DHT22;13395;50.752;4.268;2022-12-19T00:48:25;6.10;99.90
25482;DHT22;13395;50.752;4.268;2022-12-19T00:51:00;6.10;99.90
25482;DHT22;13395;50.752;4.268;2022-12-19T00:53:27;6.20;99.90
25482;DHT22;13395;50.752;4.268;2022-12-19T00:55:53;6.30;99.90
25482;DHT22;13395;50.752;4.268;2022-12-19T00:58:19;6.30;99.90
25482;DHT22;13395;50.752;4.268;2022-12-19T01:00:44;6.40;99.90
25482;DHT22;13395;50.752;4.268;2022-12-19T01:03:10;6.40;99.90
25482;DHT22;13395;50.752;4.268;2022-12-19T01:05:36;6.50;99.90
25482;DHT22;13395;50.752;4.268;2022-12-19T01:08:01;6.60;99.90
25482;DHT22;13395;50.752;4.268;2022-12-19T01:10:27;6.50;99.90
25482;DHT22;13395;50.752;4.268;2022-12-19T01:12:53;6.50;99.90
25482;DHT22;13395;50.752;4.268;2022-12-19T01:15:19;6.60;99.90
25482;DHT22;13395;50.752;4.268;2022-12-19T01:17:46;6.60;99.90
25482;DHT22;13395;50.752;4.268;2022-12-19T01:20:17;6.70;99.90
25482;DHT22;13395;50.752;4.268;2022-12-19T01:22:44;6.80;99.90
25482;DHT22;13395;50.752;4.268;2022-12-19T01:25:10;6.70;99.90
25482;DHT22;13395;50.752;4.268;2022-12-19T01:27:35;6.80;99.90
25482;DHT22;13395;50.752;4.268;2022-12-19T01:30:02;6.80;99.90
25482;DHT22;13395;50.752;4.268;2022-12-19T01:32:28;6.90;99.90
25482;DHT22;13395;50.752;4.268;2022-12-19T01:34:54;6.90;99.90
25482;DHT22;13395;50.752;4.268;2022-12-19T01:37:20;6.90;99.90
25482;DHT22;13395;50.752;4.268;2022-12-19T01:39:45;6.90;99.90
25482;DHT22;13395;50.752;4.268;2022-12-19T01:42:16;6.90;99.90
25482;DHT22;13395;50.752;4.268;2022-12-19T01:47:27;6.90;99.90
25482;DHT22;13395;50.752;4.268;2022-12-19T01:49:53;6.90;99.90
25482;DHT22;13395;50.752;4.268;2022-12-19T01:52:20;7.00;99.90
25482;DHT22;13395;50.752;4.268;2022-12-19T01:54:46;7.10;99.90
25482;DHT22;13395;50.752;4.268;2022-12-19T01:57:13;7.10;99.90
25482;DHT22;13395;50.752;4.268;2022-12-19T01:59:49;7.10;99.90
25482;DHT22;13395;50.752;4.268;2022-12-19T02:02:32;7.30;99.90
25482;DHT22;13395;50.752;4.268;2022-12-19T02:04:59;7.20;99.90
25482;DHT22;13395;50.752;4.268;2022-12-19T02:07:26;7.20;99.90
25482;DHT22;13395;50.752;4.268;2022-12-19T02:09:55;7.20;99.90
25482;DHT22;13395;50.752;4.268;2022-12-19T02:12:25;7.40;99.90
25482;DHT22;13395;50.752;4.268;2022-12-19T02:14:52;7.40;99.90
25482;DHT22;13395;50.752;4.268;2022-12-19T02:31:06;7.30;99.90
25482;DHT22;13395;50.752;4.268;2022-12-19T02:33:41;7.20;99.90
25482;DHT22;13395;50.752;4.268;2022-12-19T02:36:20;7.20;99.90
25482;DHT22;13395;50.752;4.268;2022-12-19T02:38:58;7.20;99.90
25482;DHT22;13395;50.752;4.268;2022-12-19T02:41:33;7.20;99.90
25482;DHT22;13395;50.752;4.268;2022-12-19T02:44:14;7.20;99.90
25482;DHT22;13395;50.752;4.268;2022-12-19T02:46:43;7.20;99.90
25482;DHT22;13395;50.752;4.268;2022-12-19T02:49:10;7.30;99.90
25482;DHT22;13395;50.752;4.268;2022-12-19T02:51:36;7.30;99.90
25482;DHT22;13395;50.752;4.268;2022-12-19T02:54:02;7.30;99.90
25482;DHT22;13395;50.752;4.268;2022-12-19T02:57:24;7.40;99.90
25482;DHT22;13395;50.752;4.268;2022-12-19T03:00:03;7.40;99.90
25482;DHT22;13395;50.752;4.268;2022-12-19T03:05:26;7.40;99.90
25482;DHT22;13395;50.752;4.268;2022-12-19T03:10:58;7.50;99.90
25482;DHT22;13395;50.752;4.268;2022-12-19T03:16:02;7.50;99.90
25482;DHT22;13395;50.752;4.268;2022-12-19T03:18:31;7.50;99.90
25482;DHT22;13395;50.752;4.268;2022-12-19T03:21:20;7.50;99.90
25482;DHT22;13395;50.752;4.268;2022-12-19T03:23:48;7.50;99.90
25482;DHT22;13395;50.752;4.268;2022-12-19T03:26:20;7.60;99.90
25482;DHT22;13395;50.752;4.268;2022-12-19T03:31:19;7.70;99.90
25482;DHT22;13395;50.752;4.268;2022-12-19T03:33:47;7.70;99.90
25482;DHT22;13395;50.752;4.268;2022-12-19T03:36:19;7.80;99.90
25482;DHT22;13395;50.752;4.268;2022-12-19T03:38:46;7.80;99.90
25482;DHT22;13395;50.752;4.268;2022-12-19T03:41:14;7.80;99.90
25482;DHT22;13395;50.752;4.268;2022-12-19T03:43:42;7.80;99.90
25482;DHT22;13395;50.752;4.268;2022-12-19T03:46:18;7.80;99.90
25482;DHT22;13395;50.752;4.268;2022-12-19T03:48:46;7.80;99.90
25482;DHT22;13395;50.752;4.268;2022-12-19T03:54:00;7.80;99.90
25482;DHT22;13395;50.752;4.268;2022-12-19T03:56:45;7.90;99.90
25482;DHT22;13395;50.752;4.268;2022-12-19T03:59:33;8.00;99.90
25482;DHT22;13395;50.752;4.268;2022-12-19T04:02:01;7.90;99.90
25482;DHT22;13395;50.752;4.268;2022-12-19T04:04:28;7.90;99.90
25482;DHT22;13395;50.752;4.268;2022-12-19T04:06:55;8.10;99.90
25482;DHT22;13395;50.752;4.268;2022-12-19T04:09:22;8.00;99.90
25482;DHT22;13395;50.752;4.268;2022-12-19T04:11:54;8.00;99.90
25482;DHT22;13395;50.752;4.268;2022-12-19T04:14:27;8.00;99.90
25482;DHT22;13395;50.752;4.268;2022-12-19T04:17:14;8.20;99.90
25482;DHT22;13395;50.752;4.268;2022-12-19T04:19:55;8.10;99.90
25482;DHT22;13395;50.752;4.268;2022-12-19T04:22:39;8.10;99.90
25482;DHT22;13395;50.752;4.268;2022-12-19T04:25:12;8.10;99.90
25482;DHT22;13395;50.752;4.268;2022-12-19T04:27:42;8.10;99.90
25482;DHT22;13395;50.752;4.268;2022-12-19T04:30:16;8.20;99.90
25482;DHT22;13395;50.752;4.268;2022-12-19T04:32:42;8.20;99.90
25482;DHT22;13395;50.752;4.268;2022-12-19T04:35:08;8.30;99.90
25482;DHT22;13395;50.752;4.268;2022-12-19T04:37:34;8.10;99.90
25482;DHT22;13395;50.752;4.268;2022-12-19T04:40:00;8.20;99.90
25482;DHT22;13395;50.752;4.268;2022-12-19T04:42:25;8.20;99.90
25482;DHT22;13395;50.752;4.268;2022-12-19T04:44:51;8.20;99.90
25482;DHT22;13395;50.752;4.268;2022-12-19T04:47:16;8.30;99.90
25482;DHT22;13395;50.752;4.268;2022-12-19T04:49:43;8.20;99.90
25482;DHT22;13395;50.752;4.268;2022-12-19T04:52:08;8.20;99.90
25482;DHT22;13395;50.752;4.268;2022-12-19T04:54:34;8.20;99.90
25482;DHT22;13395;50.752;4.268;2022-12-19T04:57:00;8.30;99.90
25482;DHT22;13395;50.752;4.268;2022-12-19T04:59:25;8.20;99.90
25482;DHT22;13395;50.752;4.268;2022-12-19T05:01:51;8.20;99.90
25482;DHT22;13395;50.752;4.268;2022-12-19T05:04:17;8.30;99.90
25482;DHT22;13395;50.752;4.268;2022-12-19T05:06:42;8.30;99.90
25482;DHT22;13395;50.752;4.268;2022-12-19T05:09:10;8.40;99.90
25482;DHT22;13395;50.752;4.268;2022-12-19T05:11:36;8.30;99.90
25482;DHT22;13395;50.752;4.268;2022-12-19T05:14:01;8.30;99.90
25482;DHT22;13395;50.752;4.268;2022-12-19T05:16:27;8.30;99.90
25482;DHT22;13395;50.752;4.268;2022-12-19T05:18:53;8.30;99.90
25482;DHT22;13395;50.752;4.268;2022-12-19T05:21:19;8.30;99.90
25482;DHT22;13395;50.752;4.268;2022-12-19T05:23:45;8.30;99.90
25482;DHT22;13395;50.752;4.268;2022-12-19T05:26:11;8.30;99.90
25482;DHT22;13395;50.752;4.268;2022-12-19T05:28:37;8.40;99.90
25482;DHT22;13395;50.752;4.268;2022-12-19T05:31:15;8.30;99.90
25482;DHT22;13395;50.752;4.268;2022-12-19T05:33:41;8.40;99.90
25482;DHT22;13395;50.752;4.268;2022-12-19T05:36:08;8.50;99.90
25482;DHT22;13395;50.752;4.268;2022-12-19T05:38:34;8.40;99.90
25482;DHT22;13395;50.752;4.268;2022-12-19T05:41:06;8.40;99.90
25482;DHT22;13395;50.752;4.268;2022-12-19T05:43:31;8.40;99.90
25482;DHT22;13395;50.752;4.268;2022-12-19T05:45:57;8.40;99.90
25482;DHT22;13395;50.752;4.268;2022-12-19T05:48:23;8.50;99.90
25482;DHT22;13395;50.752;4.268;2022-12-19T05:50:48;8.50;99.90
25482;DHT22;13395;50.752;4.268;2022-12-19T05:53:16;8.50;99.90
25482;DHT22;13395;50.752;4.268;2022-12-19T05:55:41;8.50;99.90
25482;DHT22;13395;50.752;4.268;2022-12-19T05:58:07;8.50;99.90
25482;DHT22;13395;50.752;4.268;2022-12-19T06:00:33;8.50;99.90
25482;DHT22;13395;50.752;4.268;2022-12-19T06:02:58;8.50;99.90
25482;DHT22;13395;50.752;4.268;2022-12-19T06:05:24;8.50;99.90
25482;DHT22;13395;50.752;4.268;2022-12-19T06:07:49;8.60;99.90
25482;DHT22;13395;50.752;4.268;2022-12-19T06:10:15;8.50;99.90
25482;DHT22;13395;50.752;4.268;2022-12-19T06:12:40;8.50;99.90
25482;DHT22;13395;50.752;4.268;2022-12-19T06:15:06;8.60;99.90
25482;DHT22;13395;50.752;4.268;2022-12-19T06:17:33;8.60;99.90
25482;DHT22;13395;50.752;4.268;2022-12-19T06:19:58;8.60;99.90
25482;DHT22;13395;50.752;4.268;2022-12-19T06:22:24;8.70;99.90
25482;DHT22;13395;50.752;4.268;2022-12-19T06:24:50;8.60;99.90
25482;DHT22;13395;50.752;4.268;2022-12-19T06:27:15;8.60;99.90
25482;DHT22;13395;50.752;4.268;2022-12-19T06:29:41;8.70;99.90
25482;DHT22;13395;50.752;4.268;2022-12-19T06:32:06;8.70;99.90
25482;DHT22;13395;50.752;4.268;2022-12-19T06:34:32;8.70;99.90
25482;DHT22;13395;50.752;4.268;2022-12-19T06:36:58;8.70;99.90
25482;DHT22;13395;50.752;4.268;2022-12-19T06:39:23;8.70;99.90
25482;DHT22;13395;50.752;4.268;2022-12-19T06:41:49;8.70;99.90
25482;DHT22;13395;50.752;4.268;2022-12-19T06:44:33;8.80;99.90
25482;DHT22;13395;50.752;4.268;2022-12-19T06:46:59;8.70;99.90
25482;DHT22;13395;50.752;4.268;2022-12-19T06:49:24;8.70;99.90
25482;DHT22;13395;50.752;4.268;2022-12-19T06:51:50;8.80;99.90
25482;DHT22;13395;50.752;4.268;2022-12-19T06:54:15;8.70;99.90
25482;DHT22;13395;50.752;4.268;2022-12-19T06:56:42;8.70;99.90
25482;DHT22;13395;50.752;4.268;2022-12-19T06:59:12;8.70;99.90
25482;DHT22;13395;50.752;4.268;2022-12-19T07:02:01;8.80;99.90
25482;DHT22;13395;50.752;4.268;2022-12-19T07:04:31;8.80;99.90
25482;DHT22;13395;50.752;4.268;2022-12-19T07:06:58;8.80;99.90
25482;DHT22;13395;50.752;4.268;2022-12-19T07:09:25;8.90;99.90
25482;DHT22;13395;50.752;4.268;2022-12-19T07:11:51;8.90;99.90
25482;DHT22;13395;50.752;4.268;2022-12-19T07:14:17;8.90;99.90
25482;DHT22;13395;50.752;4.268;2022-12-19T07:16:43;8.90;99.90
25482;DHT22;13395;50.752;4.268;2022-12-19T07:19:09;9.00;99.90
25482;DHT22;13395;50.752;4.268;2022-12-19T07:21:35;9.10;99.90
25482;DHT22;13395;50.752;4.268;2022-12-19T07:24:02;9.10;99.90
25482;DHT22;13395;50.752;4.268;2022-12-19T07:26:28;9.20;99.90
25482;DHT22;13395;50.752;4.268;2022-12-19T07:28:54;9.30;99.90
25482;DHT22;13395;50.752;4.268;2022-12-19T07:31:20;9.30;99.90
25482;DHT22;13395;50.752;4.268;2022-12-19T07:33:45;9.30;99.90
25482;DHT22;13395;50.752;4.268;2022-12-19T07:36:11;9.30;99.90
25482;DHT22;13395;50.752;4.268;2022-12-19T07:38:37;9.30;99.90
25482;DHT22;13395;50.752;4.268;2022-12-19T07:41:03;9.30;99.90
25482;DHT22;13395;50.752;4.268;2022-12-19T07:43:28;9.20;99.90
25482;DHT22;13395;50.752;4.268;2022-12-19T07:45:55;9.20;99.90
25482;DHT22;13395;50.752;4.268;2022-12-19T07:48:21;9.40;99.90
25482;DHT22;13395;50.752;4.268;2022-12-19T07:50:47;9.30;99.90
25482;DHT22;13395;50.752;4.268;2022-12-19T07:53:14;9.40;99.90
25482;DHT22;13395;50.752;4.268;2022-12-19T07:55:39;9.40;99.90
25482;DHT22;13395;50.752;4.268;2022-12-19T07:58:05;9.40;99.90
25482;DHT22;13395;50.752;4.268;2022-12-19T08:00:32;9.40;99.90
25482;DHT22;13395;50.752;4.268;2022-12-19T08:02:58;9.40;99.90
25482;DHT22;13395;50.752;4.268;2022-12-19T08:05:24;9.60;99.90
25482;DHT22;13395;50.752;4.268;2022-12-19T08:07:49;9.50;99.90
25482;DHT22;13395;50.752;4.268;2022-12-19T08:10:15;9.60;99.90
25482;DHT22;13395;50.752;4.268;2022-12-19T08:12:41;9.60;99.90
25482;DHT22;13395;50.752;4.268;2022-12-19T08:15:07;9.50;99.90
25482;DHT22;13395;50.752;4.268;2022-12-19T08:17:32;9.40;99.90
25482;DHT22;13395;50.752;4.268;2022-12-19T08:19:58;9.50;99.90
25482;DHT22;13395;50.752;4.268;2022-12-19T08:22:23;9.50;99.90
25482;DHT22;13395;50.752;4.268;2022-12-19T08:24:49;9.60;99.90
25482;DHT22;13395;50.752;4.268;2022-12-19T08:27:15;9.50;99.90
25482;DHT22;13395;50.752;4.268;2022-12-19T08:29:41;9.50;99.90
25482;DHT22;13395;50.752;4.268;2022-12-19T08:32:07;9.60;99.90
25482;DHT22;13395;50.752;4.268;2022-12-19T08:34:32;9.60;99.90
25482;DHT22;13395;50.752;4.268;2022-12-19T08:36:58;9.60;99.90
25482;DHT22;13395;50.752;4.268;2022-12-19T08:39:23;9.60;99.90
25482;DHT22;13395;50.752;4.268;2022-12-19T08:41:49;9.60;99.90
25482;DHT22;13395;50.752;4.268;2022-12-19T08:44:15;9.70;99.90
25482;DHT22;13395;50.752;4.268;2022-12-19T08:46:40;9.70;99.90
25482;DHT22;13395;50.752;4.268;2022-12-19T08:49:06;9.70;99.90
25482;DHT22;13395;50.752;4.268;2022-12-19T08:51:32;9.60;99.90
25482;DHT22;13395;50.752;4.268;2022-12-19T08:53:57;9.70;99.90
25482;DHT22;13395;50.752;4.268;2022-12-19T08:56:23;9.70;99.90
25482;DHT22;13395;50.752;4.268;2022-12-19T08:58:50;9.70;99.90
25482;DHT22;13395;50.752;4.268;2022-12-19T09:01:17;9.80;99.90
25482;DHT22;13395;50.752;4.268;2022-12-19T09:03:44;9.80;99.90
25482;DHT22;13395;50.752;4.268;2022-12-19T09:06:11;9.80;99.90
25482;DHT22;13395;50.752;4.268;2022-12-19T09:08:38;9.80;99.90
25482;DHT22;13395;50.752;4.268;2022-12-19T09:11:06;9.80;99.90
25482;DHT22;13395;50.752;4.268;2022-12-19T09:13:34;9.80;99.90
25482;DHT22;13395;50.752;4.268;2022-12-19T09:16:06;9.80;99.90
25482;DHT22;13395;50.752;4.268;2022-12-19T09:18:31;9.70;99.90
25482;DHT22;13395;50.752;4.268;2022-12-19T09:20:58;9.70;99.90
25482;DHT22;13395;50.752;4.268;2022-12-19T09:23:24;9.60;99.90
25482;DHT22;13395;50.752;4.268;2022-12-19T09:25:54;9.60;99.90
25482;DHT22;13395;50.752;4.268;2022-12-19T09:28:20;9.70;99.90
25482;DHT22;13395;50.752;4.268;2022-12-19T09:30:56;9.70;99.90
25482;DHT22;13395;50.752;4.268;2022-12-19T09:33:22;9.70;99.90
25482;DHT22;13395;50.752;4.268;2022-12-19T09:35:52;9.70;99.90
25482;DHT22;13395;50.752;4.268;2022-12-19T09:38:18;9.60;99.90
25482;DHT22;13395;50.752;4.268;2022-12-19T09:46:25;9.70;99.90
25482;DHT22;13395;50.752;4.268;2022-12-19T09:48:53;9.70;99.90
25482;DHT22;13395;50.752;4.268;2022-12-19T09:51:37;9.70;99.90
25482;DHT22;13395;50.752;4.268;2022-12-19T09:56:35;9.90;99.90
25482;DHT22;13395;50.752;4.268;2022-12-19T09:59:27;10.00;99.90
25482;DHT22;13395;50.752;4.268;2022-12-19T10:02:03;10.00;99.90
25482;DHT22;13395;50.752;4.268;2022-12-19T10:04:32;10.00;99.90
25482;DHT22;13395;50.752;4.268;2022-12-19T10:06:59;10.00;99.90
25482;DHT22;13395;50.752;4.268;2022-12-19T10:09:32;10.00;99.90
25482;DHT22;13395;50.752;4.268;2022-12-19T10:12:21;10.10;99.90
25482;DHT22;13395;50.752;4.268;2022-12-19T10:20:29;10.10;99.90
25482;DHT22;13395;50.752;4.268;2022-12-19T10:23:18;10.20;99.90
25482;DHT22;13395;50.752;4.268;2022-12-19T10:26:12;10.30;99.90
25482;DHT22;13395;50.752;4.268;2022-12-19T10:29:11;10.40;99.90
25482;DHT22;13395;50.752;4.268;2022-12-19T10:34:36;10.60;99.90
25482;DHT22;13395;50.752;4.268;2022-12-19T10:37:26;10.70;99.90
25482;DHT22;13395;50.752;4.268;2022-12-19T10:43:02;10.80;99.90
25482;DHT22;13395;50.752;4.268;2022-12-19T10:45:36;10.80;99.90
25482;DHT22;13395;50.752;4.268;2022-12-19T10:48:03;10.90;99.90
25482;DHT22;13395;50.752;4.268;2022-12-19T10:50:29;10.90;99.90
25482;DHT22;13395;50.752;4.268;2022-12-19T10:53:07;11.10;99.90
25482;DHT22;13395;50.752;4.268;2022-12-19T10:55:52;11.10;99.90
25482;DHT22;13395;50.752;4.268;2022-12-19T10:58:25;11.10;99.90
25482;DHT22;13395;50.752;4.268;2022-12-19T11:01:11;11.20;99.90
25482;DHT22;13395;50.752;4.268;2022-12-19T11:03:38;11.30;99.90
25482;DHT22;13395;50.752;4.268;2022-12-19T11:06:05;11.30;99.90
25482;DHT22;13395;50.752;4.268;2022-12-19T11:08:32;11.40;99.90
25482;DHT22;13395;50.752;4.268;2022-12-19T11:13:46;11.60;99.90
25482;DHT22;13395;50.752;4.268;2022-12-19T11:16:19;11.70;99.90
25482;DHT22;13395;50.752;4.268;2022-12-19T11:18:46;11.70;99.90
25482;DHT22;13395;50.752;4.268;2022-12-19T11:29:25;12.00;99.90
25482;DHT22;13395;50.752;4.268;2022-12-19T11:32:34;12.00;99.90
25482;DHT22;13395;50.752;4.268;2022-12-19T11:35:15;12.00;99.90
25482;DHT22;13395;50.752;4.268;2022-12-19T11:37:56;12.10;99.90
25482;DHT22;13395;50.752;4.268;2022-12-19T11:40:44;12.00;99.90
25482;DHT22;13395;50.752;4.268;2022-12-19T11:43:19;12.00;99.90
25482;DHT22;13395;50.752;4.268;2022-12-19T11:48:51;11.90;99.90
25482;DHT22;13395;50.752;4.268;2022-12-19T11:56:35;11.90;99.90
25482;DHT22;13395;50.752;4.268;2022-12-19T11:59:06;11.90;99.90
25482;DHT22;13395;50.752;4.268;2022-12-19T12:07:07;11.90;99.90
25482;DHT22;13395;50.752;4.268;2022-12-19T12:09:55;12.00;99.90
25482;DHT22;13395;50.752;4.268;2022-12-19T12:12:32;12.00;99.90
25482;DHT22;13395;50.752;4.268;2022-12-19T12:18:28;12.00;99.90
25482;DHT22;13395;50.752;4.268;2022-12-19T12:21:06;12.00;99.90
25482;DHT22;13395;50.752;4.268;2022-12-19T12:23:43;12.10;99.90
25482;DHT22;13395;50.752;4.268;2022-12-19T12:26:32;12.10;99.90
25482;DHT22;13395;50.752;4.268;2022-12-19T12:31:52;12.10;99.90
25482;DHT22;13395;50.752;4.268;2022-12-19T12:37:36;12.20;99.90
25482;DHT22;13395;50.752;4.268;2022-12-19T12:42:54;12.00;99.90
25482;DHT22;13395;50.752;4.268;2022-12-19T12:45:40;12.00;99.90
25482;DHT22;13395;50.752;4.268;2022-12-19T12:50:53;12.00;99.90
25482;DHT22;13395;50.752;4.268;2022-12-19T12:53:30;12.00;99.90
25482;DHT22;13395;50.752;4.268;2022-12-19T12:55:58;11.90;99.90
25482;DHT22;13395;50.752;4.268;2022-12-19T12:59:01;12.00;99.90
25482;DHT22;13395;50.752;4.268;2022-12-19T13:04:06;12.00;99.90
25482;DHT22;13395;50.752;4.268;2022-12-19T13:10:26;11.90;99.90
25482;DHT22;13395;50.752;4.268;2022-12-19T13:23:08;11.90;99.90
25482;DHT22;13395;50.752;4.268;2022-12-19T13:39:31;12.10;99.90
25482;DHT22;13395;50.752;4.268;2022-12-19T13:42:17;12.10;99.90
25482;DHT22;13395;50.752;4.268;2022-12-19T13:45:28;12.00;99.90
25482;DHT22;13395;50.752;4.268;2022-12-19T13:47:55;12.00;99.90
25482;DHT22;13395;50.752;4.268;2022-12-19T13:50:30;12.10;99.90
25482;DHT22;13395;50.752;4.268;2022-12-19T13:52:57;12.00;99.90
25482;DHT22;13395;50.752;4.268;2022-12-19T13:55:23;11.90;99.90
25482;DHT22;13395;50.752;4.268;2022-12-19T13:57:52;11.90;99.90
25482;DHT22;13395;50.752;4.268;2022-12-19T14:00:28;12.00;99.90
25482;DHT22;13395;50.752;4.268;2022-12-19T14:02:54;12.00;99.90
25482;DHT22;13395;50.752;4.268;2022-12-19T14:05:28;11.90;99.90
25482;DHT22;13395;50.752;4.268;2022-12-19T14:07:54;12.00;99.90
25482;DHT22;13395;50.752;4.268;2022-12-19T14:10:27;11.90;99.90
25482;DHT22;13395;50.752;4.268;2022-12-19T14:12:55;11.90;99.90
25482;DHT22;13395;50.752;4.268;2022-12-19T14:15:44;11.80;99.90
25482;DHT22;13395;50.752;4.268;2022-12-19T14:20:41;11.90;99.90
25482;DHT22;13395;50.752;4.268;2022-12-19T14:23:06;12.00;99.90
25482;DHT22;13395;50.752;4.268;2022-12-19T14:25:48;11.80;99.90
25482;DHT22;13395;50.752;4.268;2022-12-19T14:28:18;11.80;99.90
25482;DHT22;13395;50.752;4.268;2022-12-19T14:30:52;11.70;99.90
25482;DHT22;13395;50.752;4.268;2022-12-19T14:33:32;11.80;99.90
25482;DHT22;13395;50.752;4.268;2022-12-19T14:35:59;11.90;99.90
25482;DHT22;13395;50.752;4.268;2022-12-19T14:38:28;12.00;99.90
25482;DHT22;13395;50.752;4.268;2022-12-19T14:40:56;12.00;99.90
25482;DHT22;13395;50.752;4.268;2022-12-19T14:43:25;12.00;99.90
25482;DHT22;13395;50.752;4.268;2022-12-19T14:54:18;11.90;99.90
25482;DHT22;13395;50.752;4.268;2022-12-19T14:56:52;11.90;99.90
25482;DHT22;13395;50.752;4.268;2022-12-19T14:59:31;11.90;99.90
25482;DHT22;13395;50.752;4.268;2022-12-19T15:07:29;11.80;99.90
25482;DHT22;13395;50.752;4.268;2022-12-19T15:10:01;11.90;99.90
25482;DHT22;13395;50.752;4.268;2022-12-19T15:12:45;11.80;99.90
25482;DHT22;13395;50.752;4.268;2022-12-19T15:15:43;11.80;99.90
25482;DHT22;13395;50.752;4.268;2022-12-19T15:18:17;11.70;99.90
25482;DHT22;13395;50.752;4.268;2022-12-19T15:20:43;11.70;99.90
25482;DHT22;13395;50.752;4.268;2022-12-19T15:23:09;11.60;99.90
25482;DHT22;13395;50.752;4.268;2022-12-19T15:25:34;11.70;99.90
25482;DHT22;13395;50.752;4.268;2022-12-19T15:28:00;11.70;99.90
25482;DHT22;13395;50.752;4.268;2022-12-19T15:30:26;11.70;99.90
25482;DHT22;13395;50.752;4.268;2022-12-19T15:32:54;11.60;99.90
25482;DHT22;13395;50.752;4.268;2022-12-19T15:35:20;11.70;99.90
25482;DHT22;13395;50.752;4.268;2022-12-19T15:37:45;11.70;99.90
25482;DHT22;13395;50.752;4.268;2022-12-19T15:40:16;11.60;99.90
25482;DHT22;13395;50.752;4.268;2022-12-19T15:42:54;11.70;99.90
25482;DHT22;13395;50.752;4.268;2022-12-19T15:45:21;11.60;99.90
25482;DHT22;13395;50.752;4.268;2022-12-19T15:47:47;11.70;99.90
25482;DHT22;13395;50.752;4.268;2022-12-19T15:50:27;11.80;99.90
25482;DHT22;13395;50.752;4.268;2022-12-19T15:52:56;11.60;99.90
25482;DHT22;13395;50.752;4.268;2022-12-19T15:55:24;11.70;99.90
25482;DHT22;13395;50.752;4.268;2022-12-19T15:57:56;11.70;99.90
25482;DHT22;13395;50.752;4.268;2022-12-19T16:00:26;11.60;99.90
25482;DHT22;13395;50.752;4.268;2022-12-19T16:02:53;11.70;99.90
25482;DHT22;13395;50.752;4.268;2022-12-19T16:05:21;11.70;99.90
25482;DHT22;13395;50.752;4.268;2022-12-19T16:07:47;11.80;99.90
25482;DHT22;13395;50.752;4.268;2022-12-19T16:10:14;11.70;99.90
25482;DHT22;13395;50.752;4.268;2022-12-19T16:12:43;11.80;99.90
25482;DHT22;13395;50.752;4.268;2022-12-19T16:15:16;11.80;99.90
25482;DHT22;13395;50.752;4.268;2022-12-19T16:17:42;11.80;99.90
25482;DHT22;13395;50.752;4.268;2022-12-19T16:20:20;11.80;99.90
25482;DHT22;13395;50.752;4.268;2022-12-19T16:22:46;11.80;99.90
25482;DHT22;13395;50.752;4.268;2022-12-19T16:25:13;11.80;99.90
25482;DHT22;13395;50.752;4.268;2022-12-19T16:27:39;11.80;99.90
25482;DHT22;13395;50.752;4.268;2022-12-19T16:30:26;11.70;99.90
25482;DHT22;13395;50.752;4.268;2022-12-19T16:32:52;11.70;99.90
25482;DHT22;13395;50.752;4.268;2022-12-19T16:35:20;11.80;99.90
25482;DHT22;13395;50.752;4.268;2022-12-19T16:37:47;11.70;99.90
25482;DHT22;13395;50.752;4.268;2022-12-19T16:40:14;11.70;99.90
25482;DHT22;13395;50.752;4.268;2022-12-19T16:42:41;11.60;99.90
25482;DHT22;13395;50.752;4.268;2022-12-19T16:45:15;11.60;99.90
25482;DHT22;13395;50.752;4.268;2022-12-19T16:47:40;11.60;99.90
25482;DHT22;13395;50.752;4.268;2022-12-19T16:50:14;11.60;99.90
25482;DHT22;13395;50.752;4.268;2022-12-19T16:52:40;11.70;99.90
25482;DHT22;13395;50.752;4.268;2022-12-19T16:55:06;11.60;99.90
25482;DHT22;13395;50.752;4.268;2022-12-19T16:57:32;11.70;99.90
25482;DHT22;13395;50.752;4.268;2022-12-19T16:59:57;11.70;99.90
25482;DHT22;13395;50.752;4.268;2022-12-19T17:02:49;11.70;99.90
25482;DHT22;13395;50.752;4.268;2022-12-19T17:05:27;11.70;99.90
25482;DHT22;13395;50.752;4.268;2022-12-19T17:07:54;11.70;99.90
25482;DHT22;13395;50.752;4.268;2022-12-19T17:10:23;11.70;99.90
25482;DHT22;13395;50.752;4.268;2022-12-19T17:12:52;11.80;99.90
25482;DHT22;13395;50.752;4.268;2022-12-19T17:15:30;11.80;99.90
25482;DHT22;13395;50.752;4.268;2022-12-19T17:18:00;11.90;99.90
25482;DHT22;13395;50.752;4.268;2022-12-19T17:20:33;12.00;99.90
25482;DHT22;13395;50.752;4.268;2022-12-19T17:23:00;11.90;99.90
25482;DHT22;13395;50.752;4.268;2022-12-19T17:25:26;11.90;99.90
25482;DHT22;13395;50.752;4.268;2022-12-19T17:27:54;11.80;99.90
25482;DHT22;13395;50.752;4.268;2022-12-19T17:30:20;11.80;99.90
25482;DHT22;13395;50.752;4.268;2022-12-19T17:32:48;11.90;99.90
25482;DHT22;13395;50.752;4.268;2022-12-19T17:35:23;12.00;99.90
25482;DHT22;13395;50.752;4.268;2022-12-19T17:37:52;12.00;99.90
25482;DHT22;13395;50.752;4.268;2022-12-19T17:40:20;12.00;99.90
25482;DHT22;13395;50.752;4.268;2022-12-19T17:42:47;12.00;99.90
25482;DHT22;13395;50.752;4.268;2022-12-19T17:45:13;12.00;99.90
25482;DHT22;13395;50.752;4.268;2022-12-19T17:47:39;12.00;99.90
25482;DHT22;13395;50.752;4.268;2022-12-19T17:50:09;12.00;99.90
25482;DHT22;13395;50.752;4.268;2022-12-19T17:52:40;12.00;99.90
25482;DHT22;13395;50.752;4.268;2022-12-19T17:55:19;11.90;99.90
25482;DHT22;13395;50.752;4.268;2022-12-19T17:57:45;11.90;99.90
25482;DHT22;13395;50.752;4.268;2022-12-19T18:00:11;11.90;99.90
25482;DHT22;13395;50.752;4.268;2022-12-19T18:02:36;11.80;99.90
25482;DHT22;13395;50.752;4.268;2022-12-19T18:05:03;11.90;99.90
25482;DHT22;13395;50.752;4.268;2022-12-19T18:07:28;11.90;99.90
25482;DHT22;13395;50.752;4.268;2022-12-19T18:09:54;12.00;99.90
25482;DHT22;13395;50.752;4.268;2022-12-19T18:12:20;12.00;99.90
25482;DHT22;13395;50.752;4.268;2022-12-19T18:14:46;12.00;99.90